sensor_id;sensor_type;location;lat;lon;timestamp;P1;durP1;ratioP1;P2;durP2;ratioP2
45136;SDS011;30894;51.740;19.498;2022-08-11T00:03:08;4.75;;;2.50;;
45136;SDS011;30894;51.740;19.498;2022-08-11T00:05:49;7.43;;;3.13;;
45136;SDS011;30894;51.740;19.498;2022-08-11T00:08:20;5.55;;;2.80;;
45136;SDS011;30894;51.740;19.498;2022-08-11T00:10:53;4.00;;;2.38;;
45136;SDS011;30894;51.740;19.498;2022-08-11T00:13:32;3.60;;;2.10;;
45136;SDS011;30894;51.740;19.498;2022-08-11T00:16:03;3.65;;;2.05;;
45136;SDS011;30894;51.740;19.498;2022-08-11T00:18:41;6.47;;;2.92;;
45136;SDS011;30894;51.740;19.498;2022-08-11T00:21:10;3.40;;;2.35;;
45136;SDS011;30894;51.740;19.498;2022-08-11T00:23:56;6.80;;;2.35;;
45136;SDS011;30894;51.740;19.498;2022-08-11T00:26:27;5.10;;;2.55;;
45136;SDS011;30894;51.740;19.498;2022-08-11T00:28:54;5.40;;;2.95;;
45136;SDS011;30894;51.740;19.498;2022-08-11T00:31:25;5.15;;;2.47;;
45136;SDS011;30894;51.740;19.498;2022-08-11T00:33:56;5.07;;;2.58;;
45136;SDS011;30894;51.740;19.498;2022-08-11T00:37:07;4.88;;;2.65;;
45136;SDS011;30894;51.740;19.498;2022-08-11T00:39:33;3.10;;;2.20;;
45136;SDS011;30894;51.740;19.498;2022-08-11T00:45:08;4.93;;;2.50;;
45136;SDS011;30894;51.740;19.498;2022-08-11T00:54:02;4.93;;;2.38;;
45136;SDS011;30894;51.740;19.498;2022-08-11T00:59:47;4.53;;;3.15;;
45136;SDS011;30894;51.740;19.498;2022-08-11T01:05:27;7.03;;;2.90;;
45136;SDS011;30894;51.740;19.498;2022-08-11T01:08:41;5.30;;;2.85;;
45136;SDS011;30894;51.740;19.498;2022-08-11T01:12:19;6.25;;;2.83;;
45136;SDS011;30894;51.740;19.498;2022-08-11T01:20:46;6.38;;;3.30;;
45136;SDS011;30894;51.740;19.498;2022-08-11T01:35:20;7.82;;;2.58;;
45136;SDS011;30894;51.740;19.498;2022-08-11T01:41:34;6.25;;;2.70;;
45136;SDS011;30894;51.740;19.498;2022-08-11T01:47:38;4.75;;;2.50;;
45136;SDS011;30894;51.740;19.498;2022-08-11T01:58:48;4.00;;;2.53;;
45136;SDS011;30894;51.740;19.498;2022-08-11T02:05:12;5.43;;;2.92;;
45136;SDS011;30894;51.740;19.498;2022-08-11T02:10:43;5.55;;;2.33;;
45136;SDS011;30894;51.740;19.498;2022-08-11T02:13:53;4.00;;;2.05;;
45136;SDS011;30894;51.740;19.498;2022-08-11T02:22:18;6.57;;;2.42;;
45136;SDS011;30894;51.740;19.498;2022-08-11T02:28:56;6.22;;;2.33;;
45136;SDS011;30894;51.740;19.498;2022-08-11T02:38:24;4.60;;;2.45;;
45136;SDS011;30894;51.740;19.498;2022-08-11T02:41:12;7.40;;;2.55;;
45136;SDS011;30894;51.740;19.498;2022-08-11T02:50:36;6.32;;;2.30;;
45136;SDS011;30894;51.740;19.498;2022-08-11T02:53:20;7.68;;;2.33;;
45136;SDS011;30894;51.740;19.498;2022-08-11T03:11:06;5.15;;;2.17;;
45136;SDS011;30894;51.740;19.498;2022-08-11T03:17:31;5.50;;;2.10;;
45136;SDS011;30894;51.740;19.498;2022-08-11T03:20:08;3.92;;;2.50;;
45136;SDS011;30894;51.740;19.498;2022-08-11T03:28:24;7.15;;;2.63;;
45136;SDS011;30894;51.740;19.498;2022-08-11T03:33:53;6.72;;;2.50;;
45136;SDS011;30894;51.740;19.498;2022-08-11T03:36:39;4.10;;;2.40;;
45136;SDS011;30894;51.740;19.498;2022-08-11T03:39:30;6.57;;;2.28;;
45136;SDS011;30894;51.740;19.498;2022-08-11T03:45:34;5.53;;;2.20;;
45136;SDS011;30894;51.740;19.498;2022-08-11T03:51:53;6.68;;;2.28;;
45136;SDS011;30894;51.740;19.498;2022-08-11T03:54:53;4.35;;;2.33;;
45136;SDS011;30894;51.740;19.498;2022-08-11T04:09:03;4.55;;;2.28;;
45136;SDS011;30894;51.740;19.498;2022-08-11T04:12:08;5.00;;;2.03;;
45136;SDS011;30894;51.740;19.498;2022-08-11T04:30:13;3.53;;;2.33;;
45136;SDS011;30894;51.740;19.498;2022-08-11T04:39:09;6.03;;;3.17;;
45136;SDS011;30894;51.740;19.498;2022-08-11T04:42:05;7.25;;;3.20;;
45136;SDS011;30894;51.740;19.498;2022-08-11T04:52:26;12.52;;;4.70;;
45136;SDS011;30894;51.740;19.498;2022-08-11T05:17:21;14.07;;;5.90;;
45136;SDS011;30894;51.740;19.498;2022-08-11T05:20:24;12.82;;;6.40;;
45136;SDS011;30894;51.740;19.498;2022-08-11T05:23:09;10.63;;;5.25;;
45136;SDS011;30894;51.740;19.498;2022-08-11T05:25:56;9.43;;;5.00;;
45136;SDS011;30894;51.740;19.498;2022-08-11T05:28:51;8.95;;;4.28;;
45136;SDS011;30894;51.740;19.498;2022-08-11T05:31:40;9.45;;;4.95;;
45136;SDS011;30894;51.740;19.498;2022-08-11T05:34:33;16.73;;;4.63;;
45136;SDS011;30894;51.740;19.498;2022-08-11T05:37:19;9.30;;;4.50;;
45136;SDS011;30894;51.740;19.498;2022-08-11T05:40:00;12.85;;;4.97;;
45136;SDS011;30894;51.740;19.498;2022-08-11T05:42:50;8.25;;;4.35;;
45136;SDS011;30894;51.740;19.498;2022-08-11T05:45:43;8.93;;;4.22;;
45136;SDS011;30894;51.740;19.498;2022-08-11T05:48:39;11.13;;;4.10;;
45136;SDS011;30894;51.740;19.498;2022-08-11T05:51:32;7.47;;;3.50;;
45136;SDS011;30894;51.740;19.498;2022-08-11T05:54:25;7.97;;;3.17;;
45136;SDS011;30894;51.740;19.498;2022-08-11T05:57:21;8.95;;;3.20;;
45136;SDS011;30894;51.740;19.498;2022-08-11T05:59:59;10.07;;;3.53;;
45136;SDS011;30894;51.740;19.498;2022-08-11T06:02:45;6.20;;;2.90;;
45136;SDS011;30894;51.740;19.498;2022-08-11T06:05:32;9.00;;;2.72;;
45136;SDS011;30894;51.740;19.498;2022-08-11T06:08:01;4.60;;;2.90;;
45136;SDS011;30894;51.740;19.498;2022-08-11T06:10:29;7.85;;;2.75;;
45136;SDS011;30894;51.740;19.498;2022-08-11T06:13:01;5.95;;;2.40;;
45136;SDS011;30894;51.740;19.498;2022-08-11T06:15:30;7.68;;;2.60;;
45136;SDS011;30894;51.740;19.498;2022-08-11T06:17:59;7.60;;;2.80;;
45136;SDS011;30894;51.740;19.498;2022-08-11T06:20:27;7.55;;;2.65;;
45136;SDS011;30894;51.740;19.498;2022-08-11T06:23:01;7.30;;;2.33;;
45136;SDS011;30894;51.740;19.498;2022-08-11T06:25:33;7.30;;;2.42;;
45136;SDS011;30894;51.740;19.498;2022-08-11T06:28:04;4.55;;;2.50;;
45136;SDS011;30894;51.740;19.498;2022-08-11T06:30:37;3.85;;;1.98;;
45136;SDS011;30894;51.740;19.498;2022-08-11T06:33:14;7.70;;;1.98;;
45136;SDS011;30894;51.740;19.498;2022-08-11T06:41:39;4.97;;;2.10;;
45136;SDS011;30894;51.740;19.498;2022-08-11T06:44:26;4.05;;;1.70;;
45136;SDS011;30894;51.740;19.498;2022-08-11T06:47:08;3.65;;;1.90;;
45136;SDS011;30894;51.740;19.498;2022-08-11T06:49:43;2.22;;;1.50;;
45136;SDS011;30894;51.740;19.498;2022-08-11T06:52:30;6.53;;;1.83;;
45136;SDS011;30894;51.740;19.498;2022-08-11T06:55:07;3.28;;;1.40;;
45136;SDS011;30894;51.740;19.498;2022-08-11T06:57:59;3.50;;;1.83;;
45136;SDS011;30894;51.740;19.498;2022-08-11T07:00:47;2.28;;;1.60;;
45136;SDS011;30894;51.740;19.498;2022-08-11T07:03:18;4.53;;;1.40;;
45136;SDS011;30894;51.740;19.498;2022-08-11T07:05:51;3.20;;;1.60;;
45136;SDS011;30894;51.740;19.498;2022-08-11T07:15:09;2.80;;;1.05;;
45136;SDS011;30894;51.740;19.498;2022-08-11T07:17:55;4.68;;;1.58;;
45136;SDS011;30894;51.740;19.498;2022-08-11T07:20:45;2.75;;;1.23;;
45136;SDS011;30894;51.740;19.498;2022-08-11T07:23:31;1.85;;;1.10;;
45136;SDS011;30894;51.740;19.498;2022-08-11T07:26:20;2.88;;;1.00;;
45136;SDS011;30894;51.740;19.498;2022-08-11T07:29:09;3.13;;;1.00;;
45136;SDS011;30894;51.740;19.498;2022-08-11T07:31:49;2.70;;;0.95;;
45136;SDS011;30894;51.740;19.498;2022-08-11T07:34:22;4.45;;;1.00;;
45136;SDS011;30894;51.740;19.498;2022-08-11T07:37:03;6.90;;;1.95;;
45136;SDS011;30894;51.740;19.498;2022-08-11T07:39:36;3.08;;;1.00;;
45136;SDS011;30894;51.740;19.498;2022-08-11T07:42:04;1.35;;;0.90;;
45136;SDS011;30894;51.740;19.498;2022-08-11T07:44:36;4.28;;;0.80;;
45136;SDS011;30894;51.740;19.498;2022-08-11T07:47:23;2.00;;;0.80;;
45136;SDS011;30894;51.740;19.498;2022-08-11T07:50:10;2.20;;;0.90;;
45136;SDS011;30894;51.740;19.498;2022-08-11T07:52:56;4.40;;;0.80;;
45136;SDS011;30894;51.740;19.498;2022-08-11T07:55:24;1.20;;;0.80;;
45136;SDS011;30894;51.740;19.498;2022-08-11T07:57:52;2.88;;;1.08;;
45136;SDS011;30894;51.740;19.498;2022-08-11T08:00:58;1.27;;;0.80;;
45136;SDS011;30894;51.740;19.498;2022-08-11T08:03:43;3.90;;;0.80;;
45136;SDS011;30894;51.740;19.498;2022-08-11T08:06:29;1.27;;;0.85;;
45136;SDS011;30894;51.740;19.498;2022-08-11T08:09:18;5.53;;;0.80;;
45136;SDS011;30894;51.740;19.498;2022-08-11T08:12:05;5.53;;;0.73;;
45136;SDS011;30894;51.740;19.498;2022-08-11T08:14:51;3.63;;;0.80;;
45136;SDS011;30894;51.740;19.498;2022-08-11T08:17:39;4.38;;;0.70;;
45136;SDS011;30894;51.740;19.498;2022-08-11T08:20:15;0.60;;;0.60;;
45136;SDS011;30894;51.740;19.498;2022-08-11T08:22:54;1.90;;;0.77;;
45136;SDS011;30894;51.740;19.498;2022-08-11T08:25:28;1.10;;;1.00;;
45136;SDS011;30894;51.740;19.498;2022-08-11T08:27:57;3.67;;;0.73;;
45136;SDS011;30894;51.740;19.498;2022-08-11T08:30:27;4.50;;;1.00;;
45136;SDS011;30894;51.740;19.498;2022-08-11T08:33:17;2.15;;;0.82;;
45136;SDS011;30894;51.740;19.498;2022-08-11T08:35:43;3.03;;;0.90;;
45136;SDS011;30894;51.740;19.498;2022-08-11T08:38:11;4.00;;;0.65;;
45136;SDS011;30894;51.740;19.498;2022-08-11T08:40:39;1.75;;;0.90;;
45136;SDS011;30894;51.740;19.498;2022-08-11T08:43:08;0.68;;;0.68;;
45136;SDS011;30894;51.740;19.498;2022-08-11T08:45:39;0.90;;;0.80;;
45136;SDS011;30894;51.740;19.498;2022-08-11T08:48:11;0.73;;;0.68;;
45136;SDS011;30894;51.740;19.498;2022-08-11T08:50:42;1.35;;;0.68;;
45136;SDS011;30894;51.740;19.498;2022-08-11T08:53:34;0.88;;;0.70;;
45136;SDS011;30894;51.740;19.498;2022-08-11T08:56:06;4.05;;;0.93;;
45136;SDS011;30894;51.740;19.498;2022-08-11T08:58:34;3.17;;;0.80;;
45136;SDS011;30894;51.740;19.498;2022-08-11T09:01:03;4.70;;;0.90;;
45136;SDS011;30894;51.740;19.498;2022-08-11T09:03:30;1.00;;;0.82;;
45136;SDS011;30894;51.740;19.498;2022-08-11T09:06:02;3.92;;;1.02;;
45136;SDS011;30894;51.740;19.498;2022-08-11T09:08:29;0.55;;;0.55;;
45136;SDS011;30894;51.740;19.498;2022-08-11T09:10:56;1.48;;;0.75;;
45136;SDS011;30894;51.740;19.498;2022-08-11T09:13:44;0.95;;;0.70;;
45136;SDS011;30894;51.740;19.498;2022-08-11T09:16:11;1.33;;;0.80;;
45136;SDS011;30894;51.740;19.498;2022-08-11T09:18:40;1.00;;;0.73;;
45136;SDS011;30894;51.740;19.498;2022-08-11T09:21:10;1.08;;;0.52;;
45136;SDS011;30894;51.740;19.498;2022-08-11T09:23:39;1.23;;;0.63;;
45136;SDS011;30894;51.740;19.498;2022-08-11T09:26:25;0.68;;;0.57;;
45136;SDS011;30894;51.740;19.498;2022-08-11T09:29:10;2.10;;;0.65;;
45136;SDS011;30894;51.740;19.498;2022-08-11T09:31:37;0.80;;;0.80;;
45136;SDS011;30894;51.740;19.498;2022-08-11T09:34:04;2.25;;;0.85;;
45136;SDS011;30894;51.740;19.498;2022-08-11T09:36:31;2.08;;;0.90;;
45136;SDS011;30894;51.740;19.498;2022-08-11T09:39:16;0.95;;;0.65;;
45136;SDS011;30894;51.740;19.498;2022-08-11T09:42:02;3.13;;;0.68;;
45136;SDS011;30894;51.740;19.498;2022-08-11T09:44:29;1.38;;;0.60;;
45136;SDS011;30894;51.740;19.498;2022-08-11T09:49:54;1.33;;;0.65;;
45136;SDS011;30894;51.740;19.498;2022-08-11T09:52:24;1.88;;;0.70;;
45136;SDS011;30894;51.740;19.498;2022-08-11T09:54:51;1.75;;;0.60;;
45136;SDS011;30894;51.740;19.498;2022-08-11T09:57:19;1.27;;;0.68;;
45136;SDS011;30894;51.740;19.498;2022-08-11T10:00:08;0.82;;;0.50;;
45136;SDS011;30894;51.740;19.498;2022-08-11T10:02:39;3.88;;;0.80;;
45136;SDS011;30894;51.740;19.498;2022-08-11T10:05:12;0.40;;;0.40;;
45136;SDS011;30894;51.740;19.498;2022-08-11T10:08:01;0.65;;;0.60;;
45136;SDS011;30894;51.740;19.498;2022-08-11T10:10:29;2.38;;;0.60;;
45136;SDS011;30894;51.740;19.498;2022-08-11T10:13:02;0.97;;;0.80;;
45136;SDS011;30894;51.740;19.498;2022-08-11T10:15:32;3.10;;;0.90;;
45136;SDS011;30894;51.740;19.498;2022-08-11T10:20:54;3.53;;;0.70;;
45136;SDS011;30894;51.740;19.498;2022-08-11T10:23:25;2.47;;;0.73;;
45136;SDS011;30894;51.740;19.498;2022-08-11T10:26:14;2.33;;;0.75;;
45136;SDS011;30894;51.740;19.498;2022-08-11T10:29:02;0.98;;;0.70;;
45136;SDS011;30894;51.740;19.498;2022-08-11T10:31:51;0.60;;;0.60;;
45136;SDS011;30894;51.740;19.498;2022-08-11T10:34:38;0.60;;;0.60;;
45136;SDS011;30894;51.740;19.498;2022-08-11T10:37:04;2.47;;;1.00;;
45136;SDS011;30894;51.740;19.498;2022-08-11T10:39:32;10.68;;;1.98;;
45136;SDS011;30894;51.740;19.498;2022-08-11T10:42:00;17.23;;;1.50;;
45136;SDS011;30894;51.740;19.498;2022-08-11T10:44:46;7.97;;;1.38;;
45136;SDS011;30894;51.740;19.498;2022-08-11T10:47:17;1.02;;;0.60;;
45136;SDS011;30894;51.740;19.498;2022-08-11T10:50:02;1.50;;;0.50;;
45136;SDS011;30894;51.740;19.498;2022-08-11T10:52:52;6.38;;;0.80;;
45136;SDS011;30894;51.740;19.498;2022-08-11T10:55:41;2.58;;;0.65;;
45136;SDS011;30894;51.740;19.498;2022-08-11T10:58:27;2.35;;;0.65;;
45136;SDS011;30894;51.740;19.498;2022-08-11T11:01:11;2.05;;;0.70;;
45136;SDS011;30894;51.740;19.498;2022-08-11T11:03:39;0.85;;;0.65;;
45136;SDS011;30894;51.740;19.498;2022-08-11T11:09:06;0.70;;;0.50;;
45136;SDS011;30894;51.740;19.498;2022-08-11T11:12:02;1.65;;;0.55;;
45136;SDS011;30894;51.740;19.498;2022-08-11T11:14:54;1.02;;;0.40;;
45136;SDS011;30894;51.740;19.498;2022-08-11T11:17:51;4.53;;;0.60;;
45136;SDS011;30894;51.740;19.498;2022-08-11T11:23:02;1.87;;;0.70;;
45136;SDS011;30894;51.740;19.498;2022-08-11T11:32:13;1.65;;;0.63;;
45136;SDS011;30894;51.740;19.498;2022-08-11T11:37:41;2.10;;;0.63;;
45136;SDS011;30894;51.740;19.498;2022-08-11T11:40:15;0.60;;;0.50;;
45136;SDS011;30894;51.740;19.498;2022-08-11T11:42:45;2.75;;;0.60;;
45136;SDS011;30894;51.740;19.498;2022-08-11T11:45:22;0.47;;;0.47;;
45136;SDS011;30894;51.740;19.498;2022-08-11T11:47:52;1.27;;;0.60;;
45136;SDS011;30894;51.740;19.498;2022-08-11T11:50:22;0.50;;;0.50;;
45136;SDS011;30894;51.740;19.498;2022-08-11T11:52:51;0.70;;;0.50;;
45136;SDS011;30894;51.740;19.498;2022-08-11T11:55:23;0.77;;;0.43;;
45136;SDS011;30894;51.740;19.498;2022-08-11T11:57:51;1.30;;;0.60;;
45136;SDS011;30894;51.740;19.498;2022-08-11T12:00:37;0.93;;;0.50;;
45136;SDS011;30894;51.740;19.498;2022-08-11T12:03:23;1.23;;;0.60;;
45136;SDS011;30894;51.740;19.498;2022-08-11T12:05:51;2.38;;;0.40;;
45136;SDS011;30894;51.740;19.498;2022-08-11T12:08:17;2.42;;;0.50;;
45136;SDS011;30894;51.740;19.498;2022-08-11T12:10:46;0.80;;;0.50;;
45136;SDS011;30894;51.740;19.498;2022-08-11T12:13:56;0.98;;;0.60;;
45136;SDS011;30894;51.740;19.498;2022-08-11T12:16:25;0.50;;;0.50;;
45136;SDS011;30894;51.740;19.498;2022-08-11T12:18:56;0.70;;;0.52;;
45136;SDS011;30894;51.740;19.498;2022-08-11T12:21:25;0.88;;;0.60;;
45136;SDS011;30894;51.740;19.498;2022-08-11T12:23:54;1.30;;;0.80;;
45136;SDS011;30894;51.740;19.498;2022-08-11T12:26:41;6.25;;;0.70;;
45136;SDS011;30894;51.740;19.498;2022-08-11T12:29:17;0.73;;;0.60;;
45136;SDS011;30894;51.740;19.498;2022-08-11T12:31:44;0.50;;;0.50;;
45136;SDS011;30894;51.740;19.498;2022-08-11T12:34:13;0.50;;;0.50;;
45136;SDS011;30894;51.740;19.498;2022-08-11T12:36:42;0.82;;;0.50;;
45136;SDS011;30894;51.740;19.498;2022-08-11T12:39:22;0.50;;;0.50;;
45136;SDS011;30894;51.740;19.498;2022-08-11T12:42:10;1.95;;;0.80;;
45136;SDS011;30894;51.740;19.498;2022-08-11T12:44:58;0.43;;;0.43;;
45136;SDS011;30894;51.740;19.498;2022-08-11T12:47:45;1.40;;;0.63;;
45136;SDS011;30894;51.740;19.498;2022-08-11T12:50:34;3.17;;;0.50;;
45136;SDS011;30894;51.740;19.498;2022-08-11T12:53:21;2.08;;;0.75;;
45136;SDS011;30894;51.740;19.498;2022-08-11T12:55:54;5.45;;;0.60;;
45136;SDS011;30894;51.740;19.498;2022-08-11T12:58:46;3.72;;;0.65;;
45136;SDS011;30894;51.740;19.498;2022-08-11T13:01:14;2.15;;;0.70;;
45136;SDS011;30894;51.740;19.498;2022-08-11T13:04:00;0.93;;;0.60;;
45136;SDS011;30894;51.740;19.498;2022-08-11T13:06:46;1.27;;;0.68;;
45136;SDS011;30894;51.740;19.498;2022-08-11T13:09:12;0.70;;;0.50;;
45136;SDS011;30894;51.740;19.498;2022-08-11T13:11:38;0.50;;;0.50;;
45136;SDS011;30894;51.740;19.498;2022-08-11T13:14:25;3.22;;;0.50;;
45136;SDS011;30894;51.740;19.498;2022-08-11T13:16:52;4.30;;;0.50;;
45136;SDS011;30894;51.740;19.498;2022-08-11T13:19:37;1.85;;;0.70;;
45136;SDS011;30894;51.740;19.498;2022-08-11T13:22:07;1.77;;;0.70;;
45136;SDS011;30894;51.740;19.498;2022-08-11T13:24:35;2.90;;;0.85;;
45136;SDS011;30894;51.740;19.498;2022-08-11T13:27:03;0.90;;;0.60;;
45136;SDS011;30894;51.740;19.498;2022-08-11T13:29:29;5.43;;;0.68;;
45136;SDS011;30894;51.740;19.498;2022-08-11T13:31:55;2.95;;;0.90;;
45136;SDS011;30894;51.740;19.498;2022-08-11T13:34:27;0.47;;;0.40;;
45136;SDS011;30894;51.740;19.498;2022-08-11T13:36:56;3.50;;;0.70;;
45136;SDS011;30894;51.740;19.498;2022-08-11T13:39:26;1.80;;;0.65;;
45136;SDS011;30894;51.740;19.498;2022-08-11T13:41:56;1.25;;;0.80;;
45136;SDS011;30894;51.740;19.498;2022-08-11T13:44:25;2.15;;;0.60;;
45136;SDS011;30894;51.740;19.498;2022-08-11T13:46:55;0.95;;;0.43;;
45136;SDS011;30894;51.740;19.498;2022-08-11T13:49:25;4.97;;;0.68;;
45136;SDS011;30894;51.740;19.498;2022-08-11T13:51:52;3.55;;;0.40;;
45136;SDS011;30894;51.740;19.498;2022-08-11T13:54:20;0.52;;;0.30;;
45136;SDS011;30894;51.740;19.498;2022-08-11T13:56:51;4.22;;;0.40;;
45136;SDS011;30894;51.740;19.498;2022-08-11T13:59:20;0.40;;;0.40;;
45136;SDS011;30894;51.740;19.498;2022-08-11T14:01:51;0.30;;;0.30;;
45136;SDS011;30894;51.740;19.498;2022-08-11T14:04:43;0.40;;;0.40;;
45136;SDS011;30894;51.740;19.498;2022-08-11T14:07:10;0.30;;;0.30;;
45136;SDS011;30894;51.740;19.498;2022-08-11T14:09:39;0.20;;;0.20;;
45136;SDS011;30894;51.740;19.498;2022-08-11T14:12:12;0.52;;;0.25;;
45136;SDS011;30894;51.740;19.498;2022-08-11T14:15:02;0.40;;;0.30;;
45136;SDS011;30894;51.740;19.498;2022-08-11T14:17:38;1.08;;;0.25;;
45136;SDS011;30894;51.740;19.498;2022-08-11T14:20:07;0.10;;;0.10;;
45136;SDS011;30894;51.740;19.498;2022-08-11T14:22:35;0.10;;;0.10;;
45136;SDS011;30894;51.740;19.498;2022-08-11T14:25:05;0.10;;;0.10;;
45136;SDS011;30894;51.740;19.498;2022-08-11T14:27:31;0.10;;;0.10;;
45136;SDS011;30894;51.740;19.498;2022-08-11T14:29:57;0.10;;;0.10;;
45136;SDS011;30894;51.740;19.498;2022-08-11T14:32:24;0.10;;;0.10;;
45136;SDS011;30894;51.740;19.498;2022-08-11T14:34:51;0.10;;;0.10;;
45136;SDS011;30894;51.740;19.498;2022-08-11T14:37:19;0.10;;;0.10;;
45136;SDS011;30894;51.740;19.498;2022-08-11T14:39:51;0.10;;;0.10;;
45136;SDS011;30894;51.740;19.498;2022-08-11T14:42:22;0.10;;;0.10;;
45136;SDS011;30894;51.740;19.498;2022-08-11T14:45:11;0.10;;;0.10;;
45136;SDS011;30894;51.740;19.498;2022-08-11T14:48:00;0.10;;;0.10;;
45136;SDS011;30894;51.740;19.498;2022-08-11T14:50:30;0.10;;;0.10;;
45136;SDS011;30894;51.740;19.498;2022-08-11T14:52:59;0.10;;;0.10;;
45136;SDS011;30894;51.740;19.498;2022-08-11T14:55:34;0.10;;;0.10;;
45136;SDS011;30894;51.740;19.498;2022-08-11T14:58:22;0.10;;;0.10;;
45136;SDS011;30894;51.740;19.498;2022-08-11T15:00:51;0.10;;;0.10;;
45136;SDS011;30894;51.740;19.498;2022-08-11T15:03:21;0.10;;;0.10;;
45136;SDS011;30894;51.740;19.498;2022-08-11T15:05:54;0.10;;;0.10;;
45136;SDS011;30894;51.740;19.498;2022-08-11T15:08:25;0.10;;;0.10;;
45136;SDS011;30894;51.740;19.498;2022-08-11T15:14:06;0.10;;;0.10;;
45136;SDS011;30894;51.740;19.498;2022-08-11T15:16:35;0.10;;;0.10;;
45136;SDS011;30894;51.740;19.498;2022-08-11T15:19:23;0.10;;;0.10;;
45136;SDS011;30894;51.740;19.498;2022-08-11T15:21:50;0.10;;;0.10;;
45136;SDS011;30894;51.740;19.498;2022-08-11T15:24:35;0.10;;;0.10;;
45136;SDS011;30894;51.740;19.498;2022-08-11T15:27:07;0.10;;;0.10;;
45136;SDS011;30894;51.740;19.498;2022-08-11T15:29:57;0.10;;;0.10;;
45136;SDS011;30894;51.740;19.498;2022-08-11T15:32:44;0.10;;;0.10;;
45136;SDS011;30894;51.740;19.498;2022-08-11T15:35:30;0.10;;;0.10;;
45136;SDS011;30894;51.740;19.498;2022-08-11T15:38:17;0.10;;;0.10;;
45136;SDS011;30894;51.740;19.498;2022-08-11T15:40:46;0.10;;;0.10;;
45136;SDS011;30894;51.740;19.498;2022-08-11T15:46:49;0.10;;;0.10;;
45136;SDS011;30894;51.740;19.498;2022-08-11T15:49:19;0.10;;;0.10;;
45136;SDS011;30894;51.740;19.498;2022-08-11T15:51:55;0.10;;;0.10;;
45136;SDS011;30894;51.740;19.498;2022-08-11T15:54:31;0.10;;;0.10;;
45136;SDS011;30894;51.740;19.498;2022-08-11T15:57:00;0.10;;;0.10;;
45136;SDS011;30894;51.740;19.498;2022-08-11T15:59:33;0.10;;;0.10;;
45136;SDS011;30894;51.740;19.498;2022-08-11T16:02:20;0.10;;;0.10;;
45136;SDS011;30894;51.740;19.498;2022-08-11T16:05:08;0.10;;;0.10;;
45136;SDS011;30894;51.740;19.498;2022-08-11T16:07:38;0.10;;;0.10;;
45136;SDS011;30894;51.740;19.498;2022-08-11T16:10:10;0.10;;;0.10;;
45136;SDS011;30894;51.740;19.498;2022-08-11T16:12:48;0.10;;;0.10;;
45136;SDS011;30894;51.740;19.498;2022-08-11T16:15:27;0.10;;;0.10;;
45136;SDS011;30894;51.740;19.498;2022-08-11T16:18:15;0.10;;;0.10;;
45136;SDS011;30894;51.740;19.498;2022-08-11T16:20:45;0.10;;;0.10;;
45136;SDS011;30894;51.740;19.498;2022-08-11T16:23:16;0.10;;;0.10;;
45136;SDS011;30894;51.740;19.498;2022-08-11T16:25:43;0.10;;;0.10;;
45136;SDS011;30894;51.740;19.498;2022-08-11T16:28:11;0.10;;;0.10;;
45136;SDS011;30894;51.740;19.498;2022-08-11T16:30:40;0.10;;;0.10;;
45136;SDS011;30894;51.740;19.498;2022-08-11T16:33:08;0.10;;;0.10;;
45136;SDS011;30894;51.740;19.498;2022-08-11T16:35:36;0.10;;;0.10;;
45136;SDS011;30894;51.740;19.498;2022-08-11T16:38:24;0.10;;;0.10;;
45136;SDS011;30894;51.740;19.498;2022-08-11T16:41:10;0.10;;;0.10;;
45136;SDS011;30894;51.740;19.498;2022-08-11T16:43:44;0.10;;;0.10;;
45136;SDS011;30894;51.740;19.498;2022-08-11T16:46:30;0.10;;;0.10;;
45136;SDS011;30894;51.740;19.498;2022-08-11T16:49:17;0.10;;;0.10;;
45136;SDS011;30894;51.740;19.498;2022-08-11T16:51:49;0.30;;;0.30;;
45136;SDS011;30894;51.740;19.498;2022-08-11T16:54:16;0.10;;;0.10;;
45136;SDS011;30894;51.740;19.498;2022-08-11T16:56:50;0.28;;;0.10;;
45136;SDS011;30894;51.740;19.498;2022-08-11T16:59:35;0.20;;;0.20;;
45136;SDS011;30894;51.740;19.498;2022-08-11T17:02:07;0.40;;;0.40;;
45136;SDS011;30894;51.740;19.498;2022-08-11T17:04:59;0.20;;;0.20;;
45136;SDS011;30894;51.740;19.498;2022-08-11T17:07:53;0.32;;;0.32;;
45136;SDS011;30894;51.740;19.498;2022-08-11T17:10:40;0.55;;;0.45;;
45136;SDS011;30894;51.740;19.498;2022-08-11T17:13:35;0.68;;;0.68;;
45136;SDS011;30894;51.740;19.498;2022-08-11T17:16:13;0.60;;;0.52;;
45136;SDS011;30894;51.740;19.498;2022-08-11T17:18:50;0.50;;;0.40;;
45136;SDS011;30894;51.740;19.498;2022-08-11T17:21:30;2.42;;;0.80;;
45136;SDS011;30894;51.740;19.498;2022-08-11T17:24:32;0.75;;;0.60;;
45136;SDS011;30894;51.740;19.498;2022-08-11T17:27:02;0.98;;;0.63;;
45136;SDS011;30894;51.740;19.498;2022-08-11T17:29:34;1.45;;;1.05;;
45136;SDS011;30894;51.740;19.498;2022-08-11T17:32:07;2.13;;;0.70;;
45136;SDS011;30894;51.740;19.498;2022-08-11T17:34:57;1.33;;;0.50;;
45136;SDS011;30894;51.740;19.498;2022-08-11T17:37:47;1.05;;;0.60;;
45136;SDS011;30894;51.740;19.498;2022-08-11T17:40:19;0.88;;;0.63;;
45136;SDS011;30894;51.740;19.498;2022-08-11T17:42:50;1.33;;;0.82;;
45136;SDS011;30894;51.740;19.498;2022-08-11T17:45:38;1.10;;;0.88;;
45136;SDS011;30894;51.740;19.498;2022-08-11T17:48:25;2.17;;;0.50;;
45136;SDS011;30894;51.740;19.498;2022-08-11T17:51:00;3.58;;;1.20;;
45136;SDS011;30894;51.740;19.498;2022-08-11T17:53:34;1.55;;;0.80;;
45136;SDS011;30894;51.740;19.498;2022-08-11T17:56:27;3.03;;;0.98;;
45136;SDS011;30894;51.740;19.498;2022-08-11T17:59:14;7.30;;;0.90;;
45136;SDS011;30894;51.740;19.498;2022-08-11T18:02:08;0.88;;;0.63;;
45136;SDS011;30894;51.740;19.498;2022-08-11T18:04:55;1.75;;;1.10;;
45136;SDS011;30894;51.740;19.498;2022-08-11T18:07:23;0.73;;;0.73;;
45136;SDS011;30894;51.740;19.498;2022-08-11T18:10:08;0.77;;;0.70;;
45136;SDS011;30894;51.740;19.498;2022-08-11T18:12:54;3.88;;;0.82;;
45136;SDS011;30894;51.740;19.498;2022-08-11T18:15:42;2.10;;;1.20;;
45136;SDS011;30894;51.740;19.498;2022-08-11T18:18:28;1.85;;;1.05;;
45136;SDS011;30894;51.740;19.498;2022-08-11T18:21:13;3.75;;;0.85;;
45136;SDS011;30894;51.740;19.498;2022-08-11T18:24:02;1.17;;;0.80;;
45136;SDS011;30894;51.740;19.498;2022-08-11T18:26:57;2.55;;;0.70;;
45136;SDS011;30894;51.740;19.498;2022-08-11T18:29:46;2.08;;;1.40;;
45136;SDS011;30894;51.740;19.498;2022-08-11T18:32:33;3.97;;;1.60;;
45136;SDS011;30894;51.740;19.498;2022-08-11T18:35:22;3.47;;;1.38;;
45136;SDS011;30894;51.740;19.498;2022-08-11T18:38:08;3.17;;;1.05;;
45136;SDS011;30894;51.740;19.498;2022-08-11T18:40:56;3.38;;;1.55;;
45136;SDS011;30894;51.740;19.498;2022-08-11T18:43:44;3.15;;;2.08;;
45136;SDS011;30894;51.740;19.498;2022-08-11T18:46:32;2.22;;;1.38;;
45136;SDS011;30894;51.740;19.498;2022-08-11T18:49:23;2.08;;;1.48;;
45136;SDS011;30894;51.740;19.498;2022-08-11T18:52:11;1.58;;;1.10;;
45136;SDS011;30894;51.740;19.498;2022-08-11T18:54:59;2.17;;;1.20;;
45136;SDS011;30894;51.740;19.498;2022-08-11T18:57:47;1.95;;;1.55;;
45136;SDS011;30894;51.740;19.498;2022-08-11T19:00:35;3.05;;;1.60;;
45136;SDS011;30894;51.740;19.498;2022-08-11T19:03:22;2.13;;;1.60;;
45136;SDS011;30894;51.740;19.498;2022-08-11T19:06:10;4.30;;;1.70;;
45136;SDS011;30894;51.740;19.498;2022-08-11T19:08:58;2.55;;;1.58;;
45136;SDS011;30894;51.740;19.498;2022-08-11T19:11:45;3.97;;;1.67;;
45136;SDS011;30894;51.740;19.498;2022-08-11T19:14:31;4.78;;;1.55;;
45136;SDS011;30894;51.740;19.498;2022-08-11T19:17:18;4.10;;;1.40;;
45136;SDS011;30894;51.740;19.498;2022-08-11T19:20:15;8.13;;;0.98;;